Time;durP1;ratioP1;P1;durP2;ratioP2;P2;SDS_P1;SDS_P2;PMS_P1;PMS_P2;Temp;Humidity;BMP_temperature;BMP_pressure;BME280_temperature;BME280_humidity;BME280_pressure;Samples;Min_cycle;Max_cycle;Signal;HPM_P1;HPM_P2
2022/05/15 00:02:04;;;;;;;5.53;4.90;;;14.50;99.90;15.10;97181.00;;;;5001950;28;20617;-68
2022/05/15 00:04:53;;;;;;;7.60;5.50;;;14.40;99.90;15.20;97172.00;;;;5007031;28;20694;-68
2022/05/15 00:07:41;;;;;;;6.97;5.17;;;14.40;99.90;15.00;97183.00;;;;5014717;28;20199;-68
2022/05/15 00:10:32;;;;;;;5.53;5.03;;;14.30;99.90;14.90;97187.00;;;;5012654;28;20604;-68
2022/05/15 00:13:21;;;;;;;13.63;4.87;;;14.30;99.90;14.90;97183.00;;;;5025374;28;20718;-68
2022/05/15 00:16:11;;;;;;;6.27;5.67;;;14.20;99.90;14.90;97183.00;;;;5016289;28;20672;-69
2022/05/15 00:19:00;;;;;;;6.20;4.57;;;14.20;99.90;14.90;97189.00;;;;5013705;28;20636;-69
2022/05/15 00:21:48;;;;;;;6.50;5.73;;;14.10;99.90;15.00;97179.00;;;;5006499;28;20210;-69
2022/05/15 00:24:38;;;;;;;5.27;4.77;;;14.10;99.90;14.80;97178.00;;;;5015684;28;20208;-68
2022/05/15 00:27:28;;;;;;;6.27;5.17;;;14.10;99.90;14.70;97178.00;;;;5005775;28;20202;-69
2022/05/15 00:30:18;;;;;;;9.70;5.30;;;14.10;99.90;14.30;97174.00;;;;5021979;28;20237;-68
2022/05/15 00:33:07;;;;;;;6.47;5.87;;;13.90;99.90;14.20;97179.00;;;;5012456;28;20202;-69
2022/05/15 00:35:56;;;;;;;7.07;4.67;;;13.80;99.90;14.30;97170.00;;;;5012278;28;20584;-68
2022/05/15 00:38:45;;;;;;;7.53;4.97;;;13.70;99.90;14.00;97173.00;;;;5013212;28;21031;-69
2022/05/15 00:41:35;;;;;;;8.50;5.53;;;13.60;99.90;13.80;97173.00;;;;5007746;28;20303;-69
2022/05/15 00:44:25;;;;;;;7.43;6.67;;;13.50;99.90;13.40;97164.00;;;;5011996;28;20614;-67
2022/05/15 00:47:14;;;;;;;17.37;6.70;;;13.30;99.90;13.50;97173.00;;;;5010525;28;20203;-68
2022/05/15 00:50:08;;;;;;;6.07;5.47;;;13.20;99.90;13.40;97172.00;;;;5010142;28;20222;-68
2022/05/15 00:53:02;;;;;;;5.97;5.33;;;13.10;99.90;13.40;97169.00;;;;5005165;28;20232;-68
2022/05/15 00:55:53;;;;;;;9.60;7.37;;;13.00;99.90;13.40;97174.00;;;;5014034;28;20209;-68
2022/05/15 00:58:48;;;;;;;6.90;5.67;;;12.90;99.90;13.20;97172.00;;;;5016867;28;20670;-69
2022/05/15 01:01:38;;;;;;;6.97;6.27;;;12.90;99.90;13.20;97173.00;;;;5012771;28;20222;-67
2022/05/15 01:04:27;;;;;;;10.43;5.87;;;12.80;99.90;13.30;97173.00;;;;5012562;28;20589;-68
2022/05/15 01:07:16;;;;;;;14.93;6.83;;;12.70;99.90;13.40;97164.00;;;;5021929;28;20202;-68
2022/05/15 01:10:08;;;;;;;6.17;5.57;;;12.70;99.90;13.30;97166.00;;;;5012246;28;20229;-68
2022/05/15 01:12:58;;;;;;;7.17;6.23;;;12.70;99.90;13.40;97163.00;;;;5006266;28;20217;-68
2022/05/15 01:15:47;;;;;;;6.47;5.27;;;12.70;99.90;13.20;97164.00;;;;5009203;28;20777;-68
2022/05/15 01:18:40;;;;;;;7.50;6.73;;;12.70;99.90;13.20;97155.00;;;;5007025;28;20209;-68
2022/05/15 01:21:33;;;;;;;8.90;5.57;;;12.60;99.90;13.20;97157.00;;;;5014880;28;20244;-68
2022/05/15 01:24:22;;;;;;;9.47;6.20;;;12.60;99.90;13.30;97163.00;;;;5014220;28;20569;-68
2022/05/15 01:27:14;;;;;;;8.80;5.87;;;12.60;99.90;13.10;97155.00;;;;5011816;28;20210;-68
2022/05/15 01:30:05;;;;;;;6.90;5.87;;;12.50;99.90;12.90;97159.00;;;;5012358;28;20233;-68
2022/05/15 01:32:54;;;;;;;7.27;5.57;;;12.50;99.90;12.80;97161.00;;;;5010798;28;20213;-68
2022/05/15 01:35:43;;;;;;;10.00;6.60;;;12.40;99.90;12.70;97149.00;;;;5011095;28;20218;-67
2022/05/15 01:38:34;;;;;;;7.90;5.87;;;12.40;99.90;12.40;97150.00;;;;5011606;28;20198;-68
2022/05/15 01:41:24;;;;;;;8.43;5.83;;;12.30;99.90;12.50;97154.00;;;;5008103;28;20236;-67
2022/05/15 01:44:13;;;;;;;7.20;6.40;;;12.20;99.90;12.40;97152.00;;;;5004609;28;20205;-68
2022/05/15 01:47:02;;;;;;;6.97;6.27;;;12.10;99.90;12.10;97160.00;;;;5009627;28;20669;-66
2022/05/15 01:49:50;;;;;;;9.93;6.60;;;12.00;99.90;12.10;97157.00;;;;5013241;28;20229;-67
2022/05/15 01:52:39;;;;;;;9.50;6.93;;;11.90;99.90;12.20;97152.00;;;;5005198;28;20207;-67
2022/05/15 01:55:29;;;;;;;6.87;6.27;;;11.90;99.90;12.30;97158.00;;;;5012305;28;20582;-67
2022/05/15 01:58:18;;;;;;;7.27;6.57;;;11.90;99.90;12.10;97162.00;;;;5014919;28;20194;-67
2022/05/15 02:01:07;;;;;;;13.77;10.10;;;11.80;99.90;11.80;97150.00;;;;5011340;28;20229;-67
2022/05/15 02:03:56;;;;;;;10.80;6.53;;;11.70;99.90;11.70;97147.00;;;;5010996;28;20219;-66
2022/05/15 02:06:45;;;;;;;7.57;6.77;;;11.60;99.90;11.80;97156.00;;;;5002578;28;20190;-68
2022/05/15 02:09:34;;;;;;;10.90;6.80;;;11.50;99.90;11.90;97156.00;;;;5008587;28;20206;-67
2022/05/15 02:12:24;;;;;;;8.03;7.20;;;11.50;99.90;12.00;97160.00;;;;5011038;28;20669;-69
2022/05/15 02:15:13;;;;;;;10.70;6.67;;;11.50;99.90;11.90;97154.00;;;;5011939;28;20569;-68
2022/05/15 02:18:04;;;;;;;10.70;7.07;;;11.50;99.90;12.10;97155.00;;;;5010130;28;20205;-66
2022/05/15 02:20:53;;;;;;;9.30;6.73;;;11.60;99.90;12.50;97153.00;;;;5010572;28;20248;-66
2022/05/15 02:23:42;;;;;;;9.33;6.43;;;11.60;99.90;12.50;97152.00;;;;5012013;28;20202;-66
2022/05/15 02:26:31;;;;;;;8.00;7.20;;;11.70;99.90;12.60;97146.00;;;;5019438;28;20208;-67
2022/05/15 02:29:21;;;;;;;21.23;7.80;;;11.70;99.90;12.30;97145.00;;;;5002376;28;20291;-68
2022/05/15 02:32:10;;;;;;;6.73;6.13;;;11.70;99.90;12.00;97147.00;;;;5010526;28;20202;-67
2022/05/15 02:34:59;;;;;;;7.87;6.07;;;11.70;99.90;12.10;97146.00;;;;5014607;28;20210;-67
2022/05/15 02:37:48;;;;;;;8.30;7.40;;;11.60;99.90;12.10;97141.00;;;;5015546;28;20221;-67
2022/05/15 02:40:37;;;;;;;7.03;6.30;;;11.50;99.90;11.90;97135.00;;;;5014898;28;20237;-67
2022/05/15 02:43:26;;;;;;;7.93;6.00;;;11.50;99.90;11.70;97133.00;;;;5023100;28;20198;-66
2022/05/15 02:46:16;;;;;;;7.87;7.13;;;11.40;99.90;11.40;97130.00;;;;5015298;28;20209;-67
2022/05/15 02:52:12;;;;;;;8.70;6.87;;;11.20;99.90;11.40;97125.00;;;;5006261;28;20225;-69
2022/05/15 02:55:01;;;;;;;8.07;6.30;;;11.10;99.90;11.50;97140.00;;;;5003578;28;20213;-67
2022/05/15 02:57:50;;;;;;;8.93;6.80;;;11.10;99.90;11.80;97137.00;;;;5011544;28;20669;-67
2022/05/15 03:00:39;;;;;;;7.77;6.70;;;11.10;99.90;11.80;97134.00;;;;5003690;28;20671;-66
2022/05/15 03:03:29;;;;;;;10.67;7.87;;;11.20;99.90;11.80;97143.00;;;;5017916;28;20205;-67
2022/05/15 03:06:20;;;;;;;8.10;7.30;;;11.10;99.90;12.00;97148.00;;;;5009920;28;20587;-67
2022/05/15 03:09:08;;;;;;;7.13;6.43;;;11.20;99.90;11.80;97140.00;;;;5010116;28;20571;-67
2022/05/15 03:11:57;;;;;;;7.80;6.27;;;11.20;99.90;12.00;97144.00;;;;5010873;28;20959;-67
2022/05/15 03:14:46;;;;;;;6.87;6.07;;;11.30;99.90;11.70;97145.00;;;;5005748;28;20205;-67
2022/05/15 03:17:35;;;;;;;7.33;6.13;;;11.20;99.90;11.60;97149.00;;;;5010974;28;20221;-67
2022/05/15 03:20:27;;;;;;;8.67;6.23;;;11.20;99.90;11.50;97156.00;;;;5003756;28;20305;-67
2022/05/15 03:23:16;;;;;;;7.57;6.10;;;11.10;99.90;11.40;97147.00;;;;5002375;28;20198;-69
2022/05/15 03:26:05;;;;;;;7.60;6.20;;;11.10;99.90;11.20;97147.00;;;;5018935;28;20209;-68
2022/05/15 03:28:54;;;;;;;8.20;7.40;;;11.00;99.90;11.20;97150.00;;;;5010439;28;20191;-67
2022/05/15 03:31:43;;;;;;;10.80;7.40;;;10.90;99.90;11.40;97158.00;;;;5010527;28;20225;-68
2022/05/15 03:34:32;;;;;;;10.07;6.23;;;10.90;99.90;11.30;97156.00;;;;5010246;28;20215;-67
2022/05/15 03:37:22;;;;;;;7.10;6.40;;;10.80;99.90;11.50;97165.00;;;;5015438;28;20557;-68
2022/05/15 03:40:14;;;;;;;11.57;7.83;;;10.90;99.90;11.40;97165.00;;;;5018681;28;20234;-68
2022/05/15 03:43:03;;;;;;;8.27;6.90;;;10.80;99.90;11.30;97164.00;;;;5011561;28;20233;-68
2022/05/15 03:45:52;;;;;;;13.53;6.00;;;10.80;99.90;11.00;97157.00;;;;5006075;28;20217;-67
2022/05/15 03:48:41;;;;;;;10.53;7.80;;;10.70;99.90;11.10;97155.00;;;;5014197;28;20191;-67
2022/05/15 03:51:30;;;;;;;6.60;6.00;;;10.70;99.90;11.40;97157.00;;;;5014765;28;20233;-68
2022/05/15 03:54:20;;;;;;;8.73;6.93;;;10.70;99.90;11.40;97170.00;;;;5015124;28;20198;-67
2022/05/15 03:57:09;;;;;;;8.40;7.27;;;10.70;99.90;11.20;97171.00;;;;5016048;28;20205;-66
2022/05/15 03:59:58;;;;;;;7.60;6.77;;;10.70;99.90;11.00;97164.00;;;;5009653;28;20225;-68
2022/05/15 04:02:47;;;;;;;7.73;6.93;;;10.70;99.90;10.80;97160.00;;;;5015578;28;20226;-66
2022/05/15 04:05:36;;;;;;;7.33;6.73;;;10.60;99.90;11.30;97168.00;;;;5011261;28;20205;-67
2022/05/15 04:08:27;;;;;;;9.10;8.20;;;10.70;99.90;11.40;97176.00;;;;5008974;28;20224;-67
2022/05/15 04:11:17;;;;;;;8.35;7.55;;;10.70;99.90;11.20;97164.00;;;;5007597;28;20401;-68
2022/05/15 04:14:06;;;;;;;7.73;6.93;;;10.70;99.90;11.20;97173.00;;;;5009505;28;20589;-68
2022/05/15 04:16:55;;;;;;;12.37;6.90;;;10.70;99.90;11.20;97168.00;;;;5011737;28;20221;-66
2022/05/15 04:19:44;;;;;;;7.27;6.57;;;10.70;99.90;11.10;97164.00;;;;5010693;28;20720;-67
2022/05/15 04:22:33;;;;;;;9.40;6.83;;;10.70;99.90;11.00;97176.00;;;;5011678;28;20221;-67
2022/05/15 04:25:23;;;;;;;10.57;7.23;;;10.70;99.90;11.50;97171.00;;;;5010363;28;20217;-66
2022/05/15 04:28:13;;;;;;;11.40;7.20;;;10.80;99.90;11.60;97174.00;;;;5010443;28;20225;-66
2022/05/15 04:31:02;;;;;;;8.77;6.20;;;10.80;99.90;11.30;97162.00;;;;4999511;28;20911;-66
2022/05/15 04:33:50;;;;;;;8.40;6.90;;;10.90;99.90;11.40;97177.00;;;;5024783;28;20669;-67
2022/05/15 04:36:39;;;;;;;8.67;6.97;;;10.90;99.90;11.40;97169.00;;;;5017875;28;20272;-68
2022/05/15 04:39:32;;;;;;;10.60;7.23;;;10.90;99.90;11.60;97163.00;;;;5010774;28;20202;-67
2022/05/15 04:42:21;;;;;;;8.17;7.13;;;11.00;99.90;11.70;97173.00;;;;4999935;28;20222;-67
2022/05/15 04:45:12;;;;;;;8.00;7.30;;;11.10;99.90;12.00;97170.00;;;;5009201;28;20212;-67
2022/05/15 04:48:01;;;;;;;11.63;7.77;;;11.20;99.90;12.30;97174.00;;;;5010350;28;20209;-67
2022/05/15 04:50:49;;;;;;;7.17;6.50;;;11.40;99.90;12.40;97164.00;;;;5007385;28;20228;-67
2022/05/15 04:53:41;;;;;;;7.17;6.37;;;11.50;99.90;12.40;97165.00;;;;5024497;28;20694;-68
2022/05/15 04:56:30;;;;;;;9.47;7.10;;;11.60;99.90;12.30;97170.00;;;;5010379;28;20194;-67
2022/05/15 04:59:19;;;;;;;7.27;6.60;;;11.70;99.90;12.10;97173.00;;;;5004547;28;20198;-66
2022/05/15 05:02:09;;;;;;;8.13;7.10;;;11.70;99.90;12.10;97168.00;;;;5008930;28;20230;-67
2022/05/15 05:04:59;;;;;;;8.67;7.90;;;11.70;99.90;12.50;97168.00;;;;5010654;28;20210;-67
2022/05/15 05:07:48;;;;;;;6.87;6.30;;;11.80;99.90;12.60;97177.00;;;;5004767;28;20202;-67
2022/05/15 05:10:37;;;;;;;11.20;7.37;;;12.00;99.90;13.00;97185.00;;;;5009306;28;20229;-69
2022/05/15 05:13:26;;;;;;;9.53;7.67;;;12.10;99.90;13.30;97182.00;;;;5012501;28;20208;-68
2022/05/15 05:16:15;;;;;;;6.97;6.17;;;12.30;99.90;13.60;97192.00;;;;5011427;28;20194;-68
2022/05/15 05:19:06;;;;;;;7.73;6.23;;;12.50;99.90;13.30;97187.00;;;;5000927;28;20198;-68
2022/05/15 05:21:55;;;;;;;7.43;6.67;;;12.60;99.90;13.50;97194.00;;;;5010873;28;20225;-69
2022/05/15 05:24:44;;;;;;;7.53;6.30;;;12.70;99.90;13.80;97183.00;;;;5008168;28;20210;-68
2022/05/15 05:27:34;;;;;;;13.63;7.10;;;12.80;99.90;13.90;97181.00;;;;5006255;28;20217;-67
2022/05/15 05:30:26;;;;;;;9.40;6.43;;;12.90;99.90;14.00;97183.00;;;;5008863;28;20229;-67
2022/05/15 05:33:14;;;;;;;9.30;6.77;;;13.10;99.90;13.90;97183.00;;;;4999720;28;20207;-68
2022/05/15 05:36:06;;;;;;;7.60;6.83;;;13.20;99.90;14.30;97187.00;;;;5008973;28;20256;-68
2022/05/15 05:38:55;;;;;;;8.07;7.27;;;13.30;99.90;14.30;97189.00;;;;5003224;28;20202;-67
2022/05/15 05:41:44;;;;;;;7.97;7.27;;;13.40;99.90;14.60;97189.00;;;;5010596;28;20236;-67
2022/05/15 05:44:32;;;;;;;7.03;6.33;;;13.60;99.90;14.70;97187.00;;;;5009650;28;20205;-68
2022/05/15 05:47:25;;;;;;;8.43;6.37;;;13.70;99.90;14.80;97185.00;;;;5007086;28;20596;-67
2022/05/15 05:50:16;;;;;;;9.70;7.20;;;13.90;99.90;14.90;97188.00;;;;5010281;28;20233;-68
2022/05/15 05:53:07;;;;;;;8.50;6.30;;;14.00;99.90;15.40;97190.00;;;;5008818;28;20208;-68
2022/05/15 05:55:56;;;;;;;7.70;6.60;;;14.20;99.90;15.60;97191.00;;;;5007504;28;20213;-69
2022/05/15 05:58:45;;;;;;;7.67;6.87;;;14.40;99.90;15.90;97195.00;;;;5006917;28;20194;-68
2022/05/15 06:01:34;;;;;;;6.33;5.73;;;14.60;99.90;16.10;97192.00;;;;5002269;28;20234;-68
2022/05/15 06:04:41;;;;;;;6.20;5.60;;;14.80;99.90;16.60;97194.00;;;;5009186;28;20229;-69
2022/05/15 06:07:30;;;;;;;7.93;6.87;;;15.00;99.90;16.60;97192.00;;;;5007595;28;20272;-68
2022/05/15 06:10:20;;;;;;;6.37;5.87;;;15.30;99.90;16.90;97194.00;;;;5010539;28;20229;-68
2022/05/15 06:13:09;;;;;;;6.00;5.50;;;15.50;99.90;17.30;97194.00;;;;5004306;28;20215;-68
2022/05/15 06:15:58;;;;;;;8.97;5.90;;;15.70;99.90;17.50;97191.00;;;;5006710;28;20214;-68
2022/05/15 06:18:47;;;;;;;6.57;5.80;;;15.90;99.90;17.60;97192.00;;;;5003765;28;20214;-68
2022/05/15 06:21:36;;;;;;;7.60;6.13;;;16.10;99.90;17.80;97187.00;;;;5008867;28;20229;-68
2022/05/15 06:24:25;;;;;;;6.80;5.03;;;16.30;99.90;17.80;97186.00;;;;5007987;28;20204;-68
2022/05/15 06:27:16;;;;;;;6.37;4.80;;;16.50;99.90;18.10;97191.00;;;;4997011;28;20199;-68
2022/05/15 06:30:06;;;;;;;7.30;4.57;;;16.60;99.90;18.30;97193.00;;;;5009301;28;20240;-68
2022/05/15 06:32:55;;;;;;;8.93;6.07;;;16.80;99.90;18.40;97185.00;;;;5008151;28;20204;-68
2022/05/15 06:35:45;;;;;;;7.67;5.10;;;16.90;99.90;18.50;97196.00;;;;5009299;28;20209;-68
2022/05/15 06:38:34;;;;;;;7.87;5.57;;;17.10;99.90;18.60;97193.00;;;;5005893;28;20220;-68
2022/05/15 06:41:23;;;;;;;6.00;5.37;;;17.20;99.90;18.90;97187.00;;;;5010824;28;20229;-68
2022/05/15 06:44:13;;;;;;;9.57;5.73;;;17.40;99.90;19.10;97190.00;;;;5008503;28;20205;-69
2022/05/15 06:47:02;;;;;;;6.77;5.33;;;17.60;99.90;19.20;97192.00;;;;4997016;28;20583;-69
2022/05/15 06:49:51;;;;;;;7.57;4.93;;;17.70;99.90;19.30;97188.00;;;;5004978;28;20227;-69
2022/05/15 06:52:41;;;;;;;7.83;5.50;;;17.90;99.90;19.60;97191.00;;;;5000568;28;20210;-69
2022/05/15 06:55:30;;;;;;;6.50;4.73;;;18.10;99.90;19.60;97190.00;;;;5008061;28;20198;-69
2022/05/15 06:58:18;;;;;;;8.40;5.80;;;18.20;99.90;19.80;97186.00;;;;5008382;28;20198;-69
2022/05/15 07:01:08;;;;;;;7.83;4.97;;;18.30;99.90;20.00;97183.00;;;;5008313;28;20233;-69
2022/05/15 07:03:57;;;;;;;5.17;4.67;;;18.50;99.90;20.00;97184.00;;;;5006739;28;20222;-69
2022/05/15 07:06:46;;;;;;;8.13;5.20;;;18.90;99.90;20.30;97183.00;;;;5008228;28;20201;-69
2022/05/15 07:09:35;;;;;;;6.50;5.70;;;18.80;99.90;20.50;97187.00;;;;5002601;28;20577;-69
2022/05/15 07:12:25;;;;;;;4.47;3.87;;;18.90;99.90;20.70;97182.00;;;;5010164;28;20201;-69
2022/05/15 07:15:16;;;;;;;6.37;4.40;;;19.10;99.90;20.90;97186.00;;;;5011239;28;20225;-69
2022/05/15 07:18:08;;;;;;;4.20;3.77;;;19.30;99.90;21.20;97183.00;;;;5010159;28;20202;-69
2022/05/15 07:20:56;;;;;;;9.00;4.97;;;19.50;99.90;21.30;97178.00;;;;5015620;28;20237;-69
2022/05/15 07:23:45;;;;;;;4.53;4.13;;;19.60;99.90;21.60;97185.00;;;;5010965;28;20218;-69
2022/05/15 07:26:34;;;;;;;8.03;4.40;;;19.80;99.90;21.80;97182.00;;;;5011622;28;20194;-69
2022/05/15 07:29:24;;;;;;;6.77;4.30;;;20.00;99.90;21.90;97172.00;;;;5002071;28;20214;-69
2022/05/15 07:32:13;;;;;;;7.37;4.23;;;20.20;99.90;22.20;97177.00;;;;5000508;28;20217;-70
2022/05/15 07:35:04;;;;;;;4.77;4.13;;;20.40;99.90;22.10;97181.00;;;;5012932;28;20700;-69
2022/05/15 07:37:52;;;;;;;6.73;4.00;;;20.60;99.90;22.40;97175.00;;;;5013077;28;20201;-69
2022/05/15 07:40:42;;;;;;;4.30;3.90;;;20.70;99.90;22.40;97176.00;;;;5012048;28;20805;-69
2022/05/15 07:43:31;;;;;;;6.53;3.97;;;20.80;99.90;22.60;97169.00;;;;5010192;28;20249;-69
2022/05/15 07:46:21;;;;;;;5.97;3.70;;;21.00;99.90;22.90;97168.00;;;;5008108;28;20197;-69
2022/05/15 07:49:10;;;;;;;4.50;3.87;;;21.20;99.90;22.80;97165.00;;;;5009324;28;20704;-69
2022/05/15 07:52:01;;;;;;;4.83;4.00;;;21.30;99.90;23.00;97166.00;;;;5006508;28;20198;-66
2022/05/15 07:54:50;;;;;;;4.97;4.30;;;21.40;99.90;23.20;97170.00;;;;5014688;28;20581;-67
2022/05/15 07:57:39;;;;;;;7.00;4.07;;;21.50;99.90;23.40;97158.00;;;;5010545;28;20209;-68
2022/05/15 08:00:28;;;;;;;4.93;4.03;;;21.70;99.90;23.40;97164.00;;;;5012040;28;20233;-69
2022/05/15 08:03:16;;;;;;;7.37;4.03;;;21.90;99.90;23.60;97170.00;;;;5010788;28;20233;-69
2022/05/15 08:09:22;;;;;;;5.83;4.30;;;22.10;99.90;24.00;97158.00;;;;4968289;28;20206;-67
2022/05/15 08:12:11;;;;;;;9.60;3.63;;;22.20;99.90;24.30;97155.00;;;;5010177;28;20202;-69
2022/05/15 08:15:00;;;;;;;3.73;3.43;;;22.40;99.90;24.00;97154.00;;;;5002877;28;20198;-69
2022/05/15 08:17:49;;;;;;;6.07;4.50;;;22.50;99.90;23.80;97155.00;;;;5008317;28;20206;-67
2022/05/15 08:23:50;;;;;;;4.33;3.17;;;22.60;99.90;24.50;97160.00;;;;5007049;28;20240;-69
2022/05/15 08:26:40;;;;;;;4.47;4.03;;;22.70;99.90;24.50;97152.00;;;;5010416;28;20206;-69
2022/05/15 08:29:29;;;;;;;4.67;3.93;;;22.90;99.90;24.80;97147.00;;;;5008846;28;20218;-70
2022/05/15 08:32:18;;;;;;;9.87;5.57;;;23.00;99.90;24.90;97149.00;;;;5008524;28;20206;-69
2022/05/15 08:35:08;;;;;;;4.13;3.73;;;23.20;99.70;25.30;97153.00;;;;5010337;28;20217;-69
2022/05/15 08:37:57;;;;;;;4.57;3.47;;;23.30;99.50;25.20;97148.00;;;;5008310;28;20213;-69
2022/05/15 08:40:54;;;;;;;4.03;3.63;;;23.50;98.90;25.50;97147.00;;;;5004330;28;20240;-68
2022/05/15 08:43:49;;;;;;;6.17;3.73;;;23.70;99.20;25.60;97147.00;;;;5010719;28;20414;-70
2022/05/15 08:46:49;;;;;;;3.67;3.27;;;23.80;97.00;25.80;97142.00;;;;5005042;28;20214;-69
2022/05/15 08:49:41;;;;;;;4.03;3.23;;;24.00;97.10;23.90;97134.00;;;;5008232;28;20201;-68
2022/05/15 08:52:37;;;;;;;3.33;3.03;;;23.70;93.00;24.90;97141.00;;;;5003030;28;20199;-67
2022/05/15 08:55:36;;;;;;;4.17;3.77;;;23.70;95.20;25.40;97146.00;;;;5009840;28;20202;-68
2022/05/15 08:58:30;;;;;;;6.03;3.07;;;23.70;94.00;24.00;97139.00;;;;5004738;28;20849;-67
2022/05/15 09:01:26;;;;;;;3.80;2.77;;;23.70;91.70;25.20;97141.00;;;;5008277;28;20228;-67
2022/05/15 09:04:15;;;;;;;6.60;4.00;;;23.70;91.30;25.70;97138.00;;;;4994962;28;20226;-67
2022/05/15 09:07:17;;;;;;;3.57;3.27;;;23.90;90.70;25.50;97140.00;;;;4993644;28;20600;-68
2022/05/15 09:10:21;;;;;;;4.90;3.27;;;24.00;88.30;26.20;97129.00;;;;4994236;28;20214;-67
2022/05/15 09:13:26;;;;;;;3.13;2.70;;;24.20;91.20;26.30;97123.00;;;;5000814;28;20203;-67
2022/05/15 09:16:24;;;;;;;5.03;3.93;;;24.50;90.50;26.50;97136.00;;;;4996568;28;20202;-66
2022/05/15 09:19:13;;;;;;;3.43;3.13;;;24.60;89.90;26.80;97130.00;;;;4989171;28;20601;-67
2022/05/15 09:22:02;;;;;;;4.83;3.07;;;24.90;84.60;26.40;97122.00;;;;4990487;28;20211;-68
2022/05/15 09:24:52;;;;;;;3.20;2.93;;;25.00;83.40;26.90;97126.00;;;;4995693;28;20221;-67
2022/05/15 09:28:00;;;;;;;6.53;2.77;;;25.10;83.60;26.80;97140.00;;;;4991027;28;20221;-68
2022/05/15 09:30:51;;;;;;;3.10;2.60;;;25.20;80.00;26.80;97130.00;;;;4993415;28;20652;-66
2022/05/15 09:33:52;;;;;;;2.73;2.50;;;25.30;80.10;27.30;97140.00;;;;4997860;28;20218;-67
2022/05/15 09:36:45;;;;;;;2.67;2.47;;;25.40;79.10;27.60;97124.00;;;;4998056;28;20223;-68
2022/05/15 09:39:43;;;;;;;3.33;2.73;;;25.60;77.10;27.40;97123.00;;;;4994239;28;20675;-68
2022/05/15 09:45:40;;;;;;;4.53;2.30;;;25.90;74.80;28.20;97121.00;;;;4991937;28;20216;-68
2022/05/15 09:48:37;;;;;;;2.70;1.97;;;26.10;74.60;28.60;97119.00;;;;4999086;28;20206;-68
2022/05/15 09:51:41;;;;;;;3.00;2.60;;;26.40;73.70;28.80;97144.00;;;;5005780;28;20238;-68
2022/05/15 09:54:43;;;;;;;3.17;2.23;;;26.70;73.00;28.40;97119.00;;;;4998258;28;20207;-66
2022/05/15 09:57:31;;;;;;;4.97;2.40;;;26.80;68.10;28.70;97108.00;;;;5005276;28;20580;-69
2022/05/15 10:00:23;;;;;;;4.60;2.50;;;26.90;66.50;28.50;97109.00;;;;5002293;28;20226;-69
2022/05/15 10:03:21;;;;;;;4.77;3.30;;;26.90;67.20;28.60;97105.00;;;;5040775;22;20619;-67
2022/05/15 10:06:10;;;;;;;2.90;2.60;;;27.00;67.70;28.70;97114.00;;;;5039111;28;20592;-67
2022/05/15 10:09:24;;;;;;;3.37;2.83;;;27.10;64.40;29.10;97098.00;;;;5039567;28;20214;-68
2022/05/15 10:12:23;;;;;;;3.70;2.90;;;27.20;66.30;28.50;97100.00;;;;5013956;28;20234;-67
2022/05/15 10:15:14;;;;;;;3.47;2.87;;;27.20;62.00;28.40;97096.00;;;;5035286;28;20210;-68
2022/05/15 10:18:04;;;;;;;3.00;2.57;;;27.40;64.50;28.70;97117.00;;;;5032179;28;20677;-68
2022/05/15 10:20:55;;;;;;;3.97;3.07;;;27.20;62.90;29.10;97091.00;;;;5036221;28;20207;-70
2022/05/15 10:23:50;;;;;;;4.57;3.10;;;27.30;64.00;28.90;97081.00;;;;5034388;28;20225;-72
2022/05/15 10:26:48;;;;;;;3.37;2.67;;;27.50;63.60;29.80;97079.00;;;;5032947;28;20215;-71
2022/05/15 10:29:43;;;;;;;4.20;2.40;;;27.70;64.30;28.70;97065.00;;;;5033118;28;20199;-69
2022/05/15 10:32:39;;;;;;;2.73;2.30;;;27.60;61.70;30.10;97069.00;;;;5032988;28;20710;-68
2022/05/15 10:35:40;;;;;;;4.30;2.77;;;27.90;62.70;29.50;97062.00;;;;5032191;28;20610;-69
2022/05/15 10:38:48;;;;;;;8.83;2.90;;;28.10;60.20;29.50;97114.00;;;;5041712;28;20214;-69
2022/05/15 10:41:50;;;;;;;5.90;3.23;;;28.10;61.10;30.20;97057.00;;;;5033921;28;20231;-68
2022/05/15 10:44:55;;;;;;;4.10;2.90;;;28.10;62.80;30.70;97060.00;;;;5038955;28;20701;-69
2022/05/15 10:47:58;;;;;;;6.40;3.43;;;28.40;63.20;31.10;97058.00;;;;5048788;28;20689;-68
2022/05/15 10:50:56;;;;;;;3.07;2.60;;;28.80;62.50;31.30;97046.00;;;;5049282;28;20207;-68
2022/05/15 10:57:33;;;;;;;2.73;2.53;;;28.60;59.00;28.70;97088.00;;;;5038675;28;20206;-68
2022/05/15 11:00:33;;;;;;;2.57;2.37;;;28.20;58.00;28.30;97043.00;;;;5038687;28;20197;-68
2022/05/15 11:03:48;;;;;;;4.10;2.80;;;27.90;59.20;29.30;97038.00;;;;5039007;28;20259;-68
2022/05/15 11:07:01;;;;;;;3.20;2.90;;;27.60;61.10;28.60;97026.00;;;;5044174;28;20208;-68
2022/05/15 11:10:07;;;;;;;2.87;2.50;;;27.70;60.60;28.20;97090.00;;;;5043172;28;20197;-68
2022/05/15 11:13:21;;;;;;;3.53;3.10;;;27.50;60.00;28.30;97057.00;;;;5039155;28;20239;-68
2022/05/15 11:16:18;;;;;;;4.20;2.67;;;27.20;62.90;29.60;97034.00;;;;5033024;28;20205;-68
2022/05/15 11:19:34;;;;;;;9.83;3.20;;;27.60;62.00;30.20;97070.00;;;;5036817;28;20679;-68
2022/05/15 11:22:31;;;;;;;5.80;3.37;;;28.10;60.00;28.40;97050.00;;;;5043222;28;20220;-68
2022/05/15 11:25:27;;;;;;;4.97;3.33;;;27.90;60.70;27.70;97012.00;;;;5043704;28;20715;-68
2022/05/15 11:28:31;;;;;;;3.10;2.83;;;27.40;59.30;27.60;97008.00;;;;5035328;28;20200;-68
2022/05/15 11:31:24;;;;;;;5.77;2.47;;;27.30;59.60;29.00;97013.00;;;;5038941;28;20217;-68
2022/05/15 11:34:13;;;;;;;3.33;3.03;;;27.60;60.10;31.20;97057.00;;;;5041131;28;20215;-68
2022/05/15 11:37:45;;;;;;;5.43;3.00;;;28.10;63.00;30.50;96997.00;;;;5037074;28;20206;-68
2022/05/15 11:40:38;;;;;;;3.53;2.57;;;28.50;58.90;29.70;97003.00;;;;5038136;28;20293;-69
2022/05/15 11:43:59;;;;;;;2.57;2.37;;;28.70;58.60;30.00;96993.00;;;;5034122;28;20227;-68
2022/05/15 11:47:03;;;;;;;2.73;2.37;;;28.70;59.00;28.80;96980.00;;;;4935844;28;20809;-68
2022/05/15 11:50:03;;;;;;;2.80;2.53;;;28.10;57.70;29.60;97033.00;;;;5036730;28;20225;-68
2022/05/15 11:53:10;;;;;;;3.13;2.70;;;28.30;57.50;28.00;97066.00;;;;5038882;28;20234;-68
2022/05/15 11:56:19;;;;;;;3.47;2.83;;;27.60;58.90;28.00;97050.00;;;;5037455;28;20211;-68
2022/05/15 11:59:24;;;;;;;3.00;2.80;;;27.20;59.30;28.20;96979.00;;;;5029124;28;20219;-68
2022/05/15 12:02:51;;;;;;;4.70;2.73;;;27.10;59.30;31.10;96979.00;;;;5033760;28;20270;-69
2022/05/15 12:06:03;;;;;;;3.00;2.70;;;27.70;60.80;32.30;96970.00;;;;5036581;28;20229;-69
2022/05/15 12:09:33;;;;;;;3.50;2.77;;;28.60;60.60;32.80;96973.00;;;;5040568;28;20594;-69
2022/05/15 12:12:52;;;;;;;2.90;2.55;;;29.40;59.50;32.90;97032.00;;;;5037294;28;20231;-69
2022/05/15 12:15:44;;;;;;;3.10;2.90;;;30.20;56.00;32.10;96996.00;;;;5034894;28;20227;-69
2022/05/15 12:18:38;;;;;;;3.90;2.90;;;30.00;57.20;33.30;96975.00;;;;5036422;28;20663;-69
2022/05/15 12:21:38;;;;;;;4.65;2.58;;;30.40;57.40;33.30;96972.00;;;;5035639;28;20207;-68
2022/05/15 12:24:33;;;;;;;4.47;2.38;;;30.80;56.20;34.60;96973.00;;;;5038736;28;20199;-69
2022/05/15 12:27:28;;;;;;;2.63;2.30;;;31.60;57.00;35.20;97020.00;;;;5044406;28;20222;-69
2022/05/15 12:30:22;;;;;;;2.88;2.67;;;31.70;57.20;34.60;97038.00;;;;5043531;28;20204;-69
2022/05/15 12:33:12;;;;;;;2.72;2.53;;;32.00;55.50;30.60;97045.00;;;;5043519;28;20621;-69
2022/05/15 12:36:02;;;;;;;6.35;3.25;;;31.40;52.90;30.40;96982.00;;;;5051291;28;20207;-68
2022/05/15 12:38:55;;;;;;;3.83;2.33;;;30.60;53.30;33.00;96956.00;;;;5053152;28;20199;-68
2022/05/15 12:41:46;;;;;;;4.47;2.92;;;30.60;55.00;33.90;96962.00;;;;5051650;28;20879;-69
2022/05/15 12:44:39;;;;;;;5.65;3.00;;;30.90;55.10;35.30;96951.00;;;;5051652;28;20210;-68
2022/05/15 12:47:32;;;;;;;4.75;2.90;;;31.50;56.80;35.10;96956.00;;;;5054997;28;20231;-69
2022/05/15 12:50:22;;;;;;;3.63;2.53;;;32.10;55.60;34.80;96951.00;;;;5051316;28;20231;-69
2022/05/15 12:53:21;;;;;;;3.83;2.90;;;32.40;53.30;35.20;96953.00;;;;5050939;28;20227;-69
2022/05/15 12:56:12;;;;;;;7.15;2.72;;;32.60;53.70;36.40;96963.00;;;;5051605;28;20596;-69
2022/05/15 12:59:12;;;;;;;2.38;2.17;;;33.00;54.30;35.90;96960.00;;;;5039763;28;20200;-68
2022/05/15 13:02:18;;;;;;;6.32;3.58;;;33.40;53.50;35.10;96957.00;;;;5049405;28;20208;-68
2022/05/15 13:05:20;;;;;;;2.90;2.60;;;33.40;52.50;35.60;96951.00;;;;5051031;28;20207;-68